UK Observations

EGAA 260450Z 20005KT 170V230 7000 BKN004 BKN007 OVC011 14/13 Q1018 EGAC 260450Z AUTO 17005KT 5000 BR OVC002/// 14/13 Q1018 EGAE 260450Z 22007KT 9999 FEW008 BKN017 14/13 Q1017 EGBB 260450Z 32004KT 5000 HZ NSC 16/14 Q1018 EGCC 260450Z VRB01KT 0600 R23R/P1500 FG BKN001 13/13 Q1019 TEMPO 1500 BR EGDM 260450Z AUTO 33004KT 0250 FG BKN001/// 13/12 Q1018 EGDR 260450Z AUTO 01007KT 8000 // FEW006/// BKN160/// 15/15 Q1018 EGDY 260450Z AUTO 29002KT 2400 OVC002/// 16/15 Q1018 EGFF 260450Z AUTO 30005KT 0100 R30/0450 FG VV/// 16/16 Q1019 EGGD 260450Z AUTO 24002KT 0050 R27/0250 FG VV/// 16/16 Q1019 EGGP 260450Z 09004KT 4000 BR FEW005 BKN013 15/15 Q1019 EGGW 260450Z AUTO 21002KT 9999 NCD 16/13 Q1018 EGHH 260450Z 32003KT 0100 FG VV/// 12/12 Q1018 EGHI 260450Z 00000KT 8000 MIFG NSC 12/12 Q1018 EGJB 260450Z 24005KT 9999 3000SE VCFG FEW000 SCT002 BKN003 16/16 Q1019 EGJJ 260450Z 30003KT 260V320 5000 BR OVC004 16/16 Q1019 EGKK 260450Z 00000KT CAVOK 14/14 Q1018 EGLC 260450Z AUTO VRB02KT 9999 NCD 19/16 Q1018 EGLF 260450Z AUTO 22003KT 9999 NCD 12/11 Q1018 EGLL 260450Z AUTO 03001KT 9999 NCD 16/15 Q1018 NOSIG EGMC 260450Z 00000KT 7000 NSC 13/13 Q1018 EGMD 260450Z AUTO 35006KT 5000 HZ NCD 14/13 Q1018 EGNJ 260450Z AUTO 24006KT 9999 NCD 19/13 Q1018 EGNM 260450Z 29008KT 2200 HZ NSC 14/13 Q1018 EGNS 260450Z VRB02KT 0150 FG VV/// 14/14 Q1018 EGNT 260450Z 25005KT 5000 BR SCT006 14/14 Q1017 EGNV 260450Z 23003KT 6000 MIFG NSC 12/11 Q1018 EGNX 260450Z 23005KT 6000 NSC 15/14 Q1018 EGOS 260450Z AUTO 28002KT 3400 BR OVC009/// 16/16 Q1019 EGOV 260450Z AUTO 12005KT 6000 BR NCD 13/12 Q1018 EGPA 260450Z AUTO 15002KT 0100 FG VV/// 11/11 Q1014 EGPB 260450Z AUTO 20005KT 8000 NCD 13/12 Q1014 EGPC 260450Z AUTO 26004KT 0350 FG FEW000/// 12/12 Q1014 EGPD 260450Z 15003KT 9999 VCFG NSC 13/12 Q1015 NOSIG EGPE 260450Z AUTO 21010KT 9999 FEW040/// 15/13 Q1014 EGPF 260450Z AUTO 21007KT 7000 BKN005 OVC011 15/14 Q1017 EGPH 260450Z 25007KT 7000 BKN007 14/14 Q1017 EGPK 260450Z 00000KT 7000 SCT006 SCT045 14/13 Q1018 EGPL 260450Z AUTO 20019KT 9999 OVC017/// 14/11 Q1013 EGPM 260450Z 21011KT 9999 FEW016 14/12 Q1013 NOSIG EGPO 260450Z 19018KT 9999 FEW016 SCT024 14/11 Q1013 EGPU 260450Z AUTO 18014KT 9999 BKN025/// 15/13 Q1015 EGQK 260450Z AUTO 04001KT 9999 NCD 12/10 Q1014 EGQL 260450Z 27012KT 4000 BR BKN002 15/15 Q1016 AMB EGQS 260450Z 19005KT CAVOK 13/12 Q1015 RMK BLU EGSH 260450Z 00000KT 3200 BR MIFG NSC 13/12 Q1019 NOSIG EGSS 260450Z AUTO 08002KT 4100 HZ NCD 14/13 Q1019 EGTE 260450Z VRB03KT 3000 BR BKN001 15/15 Q1019 EGUB 260450Z AUTO 06003KT 9000 // NCD 13/13 Q1018 EGUL 260456Z AUTO 00000KT 9999 CLR 14/11 A3006 RMK AO2 SLP182 T01350112 $ EGUN 260456Z AUTO 12003KT 9999 CLR 15/13 A3006 RMK AO2 SLP182 T01450132 $ EGVA 260456Z AUTO 20003KT 0200 R27/0350V0500 FG BKN000 13/13 A3006 RMK AO2 VIS 0200V8000 RAB25E34DZB34E35 SLP180 P0000 T01340134 $ EGVN 260450Z 24001KT 2000 0900S PRFG FEW002 14/13 Q1018 TEMPO 0300 FG SCT001 RMK AMB TEMPO RED EGWU 260450Z AUTO 36001KT 9999 // NCD 15/14 Q1018 EGXC 260450Z 10004KT CAVOK 15/13 Q1018 RMK BLU EGXT 260450Z AUTO 27005KT 9999 NCD 16/13 Q1018 EGYD 260450Z AUTO 25003KT 9000 // NCD 16/13 Q1018 GBYD 260500Z 29004KT 9999 FEW010 25/24 Q1011 KGNC 260455Z AUTO 00000KT 10SM CLR 27/08 A2988 RMK AO2 T02660075 EGCN 260450Z 22001KT 7000 MIFG NSC 14/13 Q1019 EGOM 260450Z AUTO 26009KT 0150 FG VV/// 14/14 Q1018 EGOP 260450Z AUTO 03003KT 6000 // OVC006/// 15/14 Q1019 EGPI 260450Z AUTO 14009KT 9999 OVC028/// 13/13 Q1016 EGUW 260450Z AUTO 23002KT 5000 HZ NCD 16/13 Q1018 EGVO 260450Z AUTO 19001KT 9999 NCD 14/13 Q1018 EGVP 260450Z AUTO 33004KT 5000 // FEW001/// 14/14 Q1018 EGXE 260450Z AUTO 17002KT 9999 NCD 14/13 Q1018 EGXP 260450Z AUTO 17003KT 9999 // NCD 16/13 Q1018 EGXS 260450Z AUTO 14007KT 8000 // NCD 16/13 Q1018 EGXU 260450Z AUTO 11001KT 2900 // NCD 13/13 Q1018 EGXV 260450Z AUTO 25001KT 2900 BR NCD 12/12 Q1017 EGXW 260450Z 20003KT CAVOK 16/13 Q1018 RMK BLU EGXZ 260450Z AUTO 18002KT 1700 FEW003/// 11/11 Q1018 EGYM 260450Z AUTO 14004KT 5000 HZ NCD 15/12 Q1018